createdAt,value
2022-09-27T00:00:44.544Z,65.22
2022-09-27T00:03:33.444Z,65.25
2022-09-27T00:06:22.874Z,65.57
2022-09-27T00:08:56.464Z,65.37
2022-09-27T00:11:37.942Z,65.69
2022-09-27T00:14:14.076Z,65.44
2022-09-27T00:16:48.856Z,65.39
2022-09-27T00:19:24.136Z,65.51
2022-09-27T00:21:57.524Z,65.38
2022-09-27T00:24:32.833Z,65.45
2022-09-27T00:31:38.545Z,65.48
2022-09-27T00:34:20.452Z,65.65
2022-09-27T00:36:54.512Z,65.57
2022-09-27T00:39:27.978Z,65.75
2022-09-27T00:42:02.815Z,65.69
2022-09-27T00:45:02.484Z,65.57
2022-09-27T00:47:55.784Z,65.73
2022-09-27T00:50:45.492Z,65.79
2022-09-27T00:53:42.387Z,65.82
2022-09-27T00:56:21.585Z,66.06
2022-09-27T00:59:18.927Z,66.01
2022-09-27T01:01:53.538Z,65.88
2022-09-27T01:11:20.257Z,65.96
2022-09-27T01:14:39.766Z,66.17
2022-09-27T01:17:19.300Z,66.13
2022-09-27T01:20:05.115Z,66.22
2022-09-27T01:23:03.190Z,66.22
2022-09-27T01:26:02.099Z,66.32
2022-09-27T01:28:50.630Z,66.28
2022-09-27T01:32:03.645Z,66.11
2022-09-27T01:34:36.932Z,66.30
2022-09-27T01:37:18.489Z,66.51
2022-09-27T01:40:12.324Z,66.42
2022-09-27T01:43:19.209Z,66.53
2022-09-27T01:45:57.124Z,66.52
2022-09-27T01:48:52.973Z,66.38
2022-09-27T01:51:32.889Z,66.48
2022-09-27T01:54:06.052Z,66.62
2022-09-27T01:56:55.610Z,66.39
2022-09-27T01:59:48.614Z,66.60
2022-09-27T02:02:54.418Z,66.70
2022-09-27T02:06:15.899Z,66.64
2022-09-27T02:09:12.126Z,66.55
2022-09-27T02:12:00.707Z,66.67
2022-09-27T02:14:44.685Z,66.80
2022-09-27T02:17:41.823Z,66.79
2022-09-27T02:20:27.897Z,66.76
2022-09-27T02:23:14.126Z,66.69
2022-09-27T02:26:11.116Z,66.76
2022-09-27T02:28:45.225Z,66.80
2022-09-27T02:31:20.621Z,66.74
2022-09-27T02:34:08.908Z,66.92
2022-09-27T02:36:40.085Z,66.72
2022-09-27T02:39:10.971Z,66.89
2022-09-27T02:41:41.499Z,66.99
2022-09-27T02:44:15.553Z,66.84
2022-09-27T02:47:21.310Z,66.98
2022-09-27T02:50:01.012Z,67.16
2022-09-27T02:53:08.465Z,67.03
2022-09-27T02:55:55.275Z,66.89
2022-09-27T02:59:11.666Z,67.23
2022-09-27T03:02:36.610Z,67.16
2022-09-27T03:05:48.504Z,67.20
2022-09-27T03:08:21.085Z,67.11
2022-09-27T03:10:54.691Z,67.27
2022-09-27T03:13:25.405Z,67.17
2022-09-27T03:16:00.704Z,67.25
2022-09-27T03:18:53.009Z,67.17
2022-09-27T03:21:41.898Z,67.21
2022-09-27T03:24:15.648Z,67.33
2022-09-27T03:26:46.236Z,67.33
2022-09-27T03:29:19.259Z,67.19
2022-09-27T03:31:53.662Z,67.26
2022-09-27T03:34:51.837Z,67.22
2022-09-27T03:37:22.648Z,67.18
2022-09-27T03:39:53.055Z,67.23
2022-09-27T03:42:23.522Z,67.07
2022-09-27T03:44:54.717Z,67.20
2022-09-27T03:47:25.279Z,67.27
2022-09-27T03:49:55.656Z,67.22
2022-09-27T03:52:26.190Z,67.13
2022-09-27T03:55:01.850Z,67.19
2022-09-27T03:57:33.016Z,67.15
2022-09-27T04:00:08.297Z,67.10
2022-09-27T04:02:44.884Z,67.09
2022-09-27T04:05:28.663Z,67.06
2022-09-27T04:08:12.277Z,66.97
2022-09-27T04:10:44.546Z,67.09
2022-09-27T04:13:15.172Z,67.15
2022-09-27T04:15:52.517Z,67.06
2022-09-27T04:18:22.998Z,67.40
2022-09-27T04:20:53.256Z,67.24
2022-09-27T04:23:27.663Z,67.29
2022-09-27T04:26:00.149Z,67.17
2022-09-27T04:28:54.824Z,67.08
2022-09-27T04:31:25.597Z,67.10
2022-09-27T04:34:18.927Z,67.17
2022-09-27T04:36:49.333Z,67.19
2022-09-27T04:39:20.907Z,67.27
2022-09-27T04:41:51.852Z,67.08
2022-09-27T04:44:22.280Z,67.05
2022-09-27T04:46:53.628Z,67.17
2022-09-27T04:49:23.982Z,67.32
2022-09-27T04:51:54.301Z,67.32
2022-09-27T04:54:26.025Z,67.27
2022-09-27T04:57:03.746Z,67.16
2022-09-27T04:59:34.635Z,67.25
2022-09-27T05:02:05.932Z,67.44
2022-09-27T05:04:57.144Z,67.36
2022-09-27T05:07:31.921Z,67.45
2022-09-27T05:10:06.925Z,67.44
2022-09-27T05:12:37.704Z,67.24
2022-09-27T05:15:08.496Z,67.23
2022-09-27T05:17:58.608Z,67.44
2022-09-27T05:20:30.065Z,67.49
2022-09-27T05:23:11.681Z,67.59
2022-09-27T05:25:42.949Z,67.67
2022-09-27T05:28:14.480Z,67.56
2022-09-27T05:30:46.170Z,67.53
2022-09-27T05:33:21.535Z,67.59
2022-09-27T05:35:59.619Z,67.53
2022-09-27T05:38:32.465Z,67.60
2022-09-27T05:41:04.609Z,67.48
2022-09-27T05:43:36.655Z,67.57
2022-09-27T05:46:08.709Z,67.63
2022-09-27T05:48:41.272Z,67.64
2022-09-27T05:51:12.281Z,67.74
2022-09-27T05:53:44.660Z,67.51
2022-09-27T05:56:21.607Z,67.83
2022-09-27T05:59:08.598Z,67.67
2022-09-27T06:01:58.840Z,67.75
2022-09-27T06:04:58.755Z,67.89
2022-09-27T06:07:44.414Z,67.86
2022-09-27T06:10:22.165Z,68.02
2022-09-27T06:12:52.804Z,67.92
2022-09-27T06:15:39.705Z,67.97
2022-09-27T06:18:16.551Z,68.07
2022-09-27T06:20:48.335Z,68.09
2022-09-27T06:23:22.949Z,67.99
2022-09-27T06:25:55.129Z,67.94
2022-09-27T06:28:32.752Z,68.13
2022-09-27T06:31:03.172Z,68.12
2022-09-27T06:33:40.809Z,68.39
2022-09-27T06:36:14.175Z,68.17
2022-09-27T06:38:47.218Z,68.34
2022-09-27T06:41:40.349Z,68.28
2022-09-27T06:44:29.886Z,68.21
2022-09-27T06:47:19.797Z,68.26
2022-09-27T06:50:31.268Z,68.27
2022-09-27T06:53:02.637Z,68.45
2022-09-27T06:55:33.316Z,68.26
2022-09-27T06:58:22.607Z,68.61
2022-09-27T07:01:19.191Z,68.41
2022-09-27T07:04:09.532Z,68.64
2022-09-27T07:06:52.288Z,68.62
2022-09-27T07:09:27.771Z,68.76
2022-09-27T07:11:59.102Z,68.79
2022-09-27T07:14:32.139Z,68.74
2022-09-27T07:17:02.848Z,68.80
2022-09-27T07:19:40.355Z,68.60
2022-09-27T07:22:13.405Z,68.43
2022-09-27T07:24:45.667Z,68.69
2022-09-27T07:27:18.707Z,68.77
2022-09-27T07:29:49.346Z,68.75
2022-09-27T07:32:19.847Z,69.03
2022-09-27T07:34:50.805Z,69.01
2022-09-27T07:37:24.052Z,69.02
2022-09-27T07:39:54.689Z,68.94
2022-09-27T07:42:24.890Z,68.75
2022-09-27T07:44:59.936Z,68.86
2022-09-27T07:47:52.869Z,68.85
2022-09-27T07:50:39.159Z,69.14
2022-09-27T07:53:32.914Z,69.23
2022-09-27T07:56:21.755Z,69.14
2022-09-27T07:58:52.291Z,69.25
2022-09-27T08:01:22.997Z,69.30
2022-09-27T08:03:53.314Z,69.10
2022-09-27T08:06:24.350Z,69.15
2022-09-27T08:08:56.098Z,69.12
2022-09-27T08:11:27.738Z,69.00
2022-09-27T08:13:58.172Z,69.35
2022-09-27T08:16:36.083Z,69.45
2022-09-27T08:19:22.095Z,69.39
2022-09-27T08:22:25.888Z,69.32
2022-09-27T08:25:05.437Z,69.28
2022-09-27T08:27:58.160Z,69.33
2022-09-27T08:30:41.191Z,69.35
2022-09-27T08:33:11.693Z,69.59
2022-09-27T08:35:42.124Z,69.60
2022-09-27T08:38:13.408Z,69.55
2022-09-27T08:40:53.692Z,69.40
2022-09-27T08:43:54.747Z,69.33
2022-09-27T08:46:51.234Z,69.32
2022-09-27T08:49:59.352Z,69.45
2022-09-27T08:53:17.125Z,69.58
2022-09-27T08:55:54.164Z,69.56
2022-09-27T08:58:32.481Z,69.50
2022-09-27T09:01:08.788Z,69.45
2022-09-27T09:03:53.596Z,69.37
2022-09-27T09:06:50.346Z,69.49
2022-09-27T09:09:32.680Z,69.64
2022-09-27T09:12:50.318Z,69.56
2022-09-27T09:15:55.915Z,69.65
2022-09-27T09:18:56.138Z,69.64
2022-09-27T09:21:56.464Z,69.58
2022-09-27T09:24:41.991Z,69.49
2022-09-27T09:27:19.675Z,69.56
2022-09-27T09:30:20.518Z,69.75
2022-09-27T09:33:03.917Z,69.75
2022-09-27T09:35:49.356Z,69.67
2022-09-27T09:38:27.118Z,69.68
2022-09-27T09:41:24.738Z,69.69
2022-09-27T09:44:07.756Z,69.66
2022-09-27T09:46:48.408Z,69.89
2022-09-27T09:49:33.602Z,69.61
2022-09-27T09:52:16.814Z,69.80
2022-09-27T09:55:15.456Z,69.58
2022-09-27T09:58:21.612Z,69.77
2022-09-27T10:01:56.282Z,69.98
2022-09-27T10:04:29.800Z,69.71
2022-09-27T10:07:03.357Z,69.77
2022-09-27T10:09:36.905Z,69.88
2022-09-27T10:12:28.049Z,69.91
2022-09-27T10:15:03.445Z,69.77
2022-09-27T10:17:46.498Z,69.81
2022-09-27T10:20:28.973Z,69.89
2022-09-27T10:23:08.366Z,69.88
2022-09-27T10:25:56.882Z,69.80
2022-09-27T10:28:46.313Z,69.88
2022-09-27T10:31:22.392Z,69.96
2022-09-27T10:34:06.944Z,69.96
2022-09-27T10:36:43.269Z,69.87
2022-09-27T10:39:24.611Z,70.10
2022-09-27T10:42:00.652Z,69.96
2022-09-27T10:44:42.417Z,69.88
2022-09-27T10:47:26.909Z,69.94
2022-09-27T10:50:48.897Z,69.76
2022-09-27T10:53:28.464Z,69.93
2022-09-27T10:56:03.727Z,70.08
2022-09-27T10:58:40.782Z,69.96
2022-09-27T11:01:17.427Z,69.77
2022-09-27T11:04:06.924Z,69.68
2022-09-27T11:06:39.679Z,69.81
2022-09-27T11:09:20.685Z,69.90
2022-09-27T11:12:15.192Z,69.79
2022-09-27T11:15:16.536Z,69.85
2022-09-27T11:18:14.955Z,69.77
2022-09-27T11:21:06.976Z,69.74
2022-09-27T11:24:14.326Z,69.64
2022-09-27T11:27:07.113Z,69.56
2022-09-27T11:30:00.250Z,69.85
2022-09-27T11:33:02.992Z,69.68
2022-09-27T11:35:47.722Z,69.75
2022-09-27T11:38:53.714Z,69.65
2022-09-27T11:41:58.686Z,69.78
2022-09-27T11:45:19.518Z,69.75
2022-09-27T11:47:51.161Z,69.53
2022-09-27T11:50:33.912Z,69.59
2022-09-27T11:53:26.179Z,69.61
2022-09-27T11:56:43.308Z,69.68
2022-09-27T11:59:24.979Z,69.49
2022-09-27T12:02:18.226Z,69.39
2022-09-27T12:05:00.172Z,69.33
2022-09-27T12:07:58.710Z,69.13
2022-09-27T12:10:36.170Z,68.97
2022-09-27T12:13:35.247Z,69.06
2022-09-27T12:16:20.113Z,68.80
2022-09-27T12:19:21.173Z,69.05
2022-09-27T12:22:59.952Z,69.02
2022-09-27T12:26:30.529Z,68.98
2022-09-27T12:29:45.665Z,68.99
2022-09-27T12:32:50.975Z,68.97
2022-09-27T12:36:17.165Z,68.68
2022-09-27T12:39:09.247Z,68.80
2022-09-27T12:41:50.132Z,68.74
2022-09-27T12:44:44.916Z,68.65
2022-09-27T12:48:16.120Z,68.51
2022-09-27T12:51:52.940Z,68.41
2022-09-27T12:54:51.867Z,68.63
2022-09-27T12:57:52.253Z,68.57
2022-09-27T13:00:44.252Z,68.53
2022-09-27T13:03:36.297Z,68.51
2022-09-27T13:06:40.748Z,68.40
2022-09-27T13:10:09.247Z,68.37
2022-09-27T13:13:08.037Z,68.30
2022-09-27T13:16:07.067Z,68.38
2022-09-27T13:18:56.573Z,68.31
2022-09-27T13:22:05.183Z,68.34
2022-09-27T13:25:10.146Z,68.54
2022-09-27T13:28:35.828Z,68.59
2022-09-27T13:31:33.884Z,68.49
2022-09-27T13:34:19.914Z,68.64
2022-09-27T13:37:46.785Z,68.58
2022-09-27T13:40:32.559Z,68.53
2022-09-27T13:44:05.536Z,68.46
2022-09-27T13:47:03.393Z,68.31
2022-09-27T13:49:55.106Z,68.16
2022-09-27T13:52:59.314Z,68.15
2022-09-27T13:55:59.440Z,68.14
2022-09-27T13:58:46.666Z,68.18
2022-09-27T14:02:30.410Z,68.12
2022-09-27T14:05:15.478Z,68.13
2022-09-27T14:08:00.144Z,68.18
2022-09-27T14:10:40.278Z,67.85
2022-09-27T14:14:00.191Z,67.80
2022-09-27T14:16:46.716Z,67.72
2022-09-27T14:19:37.548Z,67.76
2022-09-27T14:22:29.089Z,67.95
2022-09-27T14:25:22.194Z,67.89
2022-09-27T14:28:15.218Z,67.87
2022-09-27T14:31:29.881Z,67.90
2022-09-27T14:34:31.973Z,67.79
2022-09-27T14:37:28.014Z,67.78
2022-09-27T14:40:20.174Z,67.72
2022-09-27T14:43:05.264Z,67.79
2022-09-27T14:45:57.042Z,67.81
2022-09-27T14:49:05.198Z,67.81
2022-09-27T14:51:49.114Z,67.95
2022-09-27T14:54:37.135Z,68.02
2022-09-27T14:57:24.204Z,67.90
2022-09-27T15:00:41.890Z,67.87
2022-09-27T15:03:27.203Z,67.88
2022-09-27T15:06:16.110Z,67.76
2022-09-27T15:08:58.014Z,67.66
2022-09-27T15:11:51.893Z,67.48
2022-09-27T15:14:41.515Z,67.49
2022-09-27T15:17:46.131Z,67.43
2022-09-27T15:20:35.278Z,67.52
2022-09-27T15:23:27.016Z,67.40
2022-09-27T15:26:27.947Z,67.40
2022-09-27T15:29:25.154Z,67.41
2022-09-27T15:32:07.160Z,67.36
2022-09-27T15:35:11.145Z,67.28
2022-09-27T15:38:05.118Z,67.33
2022-09-27T15:40:47.132Z,67.19
2022-09-27T15:44:05.230Z,67.22
2022-09-27T15:46:54.151Z,67.15
2022-09-27T15:49:41.157Z,67.00
2022-09-27T15:52:26.493Z,67.27
2022-09-27T15:55:05.130Z,67.27
2022-09-27T15:57:51.073Z,67.17
2022-09-27T16:00:44.061Z,66.98
2022-09-27T16:03:32.268Z,67.06
2022-09-27T16:06:32.970Z,67.15
2022-09-27T16:09:35.401Z,67.14
2022-09-27T16:12:54.067Z,66.95
2022-09-27T16:15:51.127Z,67.15
2022-09-27T16:22:29.365Z,66.96
2022-09-27T16:25:24.170Z,67.09
2022-09-27T16:28:26.071Z,67.20
2022-09-27T16:31:24.050Z,67.12
2022-09-27T16:34:09.895Z,67.13
2022-09-27T16:36:44.160Z,67.16
2022-09-27T16:39:43.943Z,67.10
2022-09-27T16:42:29.916Z,67.26
2022-09-27T16:45:18.307Z,67.26
2022-09-27T16:48:05.121Z,67.06
2022-09-27T16:50:58.258Z,67.31
2022-09-27T16:53:48.159Z,67.32
2022-09-27T16:56:50.279Z,67.30
2022-09-27T16:59:58.079Z,67.22
2022-09-27T17:02:54.971Z,67.34
2022-09-27T17:05:34.331Z,67.36
2022-09-27T17:08:17.815Z,67.29
2022-09-27T17:11:10.969Z,67.14
2022-09-27T17:13:58.924Z,67.19
2022-09-27T17:16:34.969Z,67.41
2022-09-27T17:19:19.652Z,67.21
2022-09-27T17:22:03.015Z,67.47
2022-09-27T17:24:47.955Z,67.39
2022-09-27T17:27:25.817Z,67.27
2022-09-27T17:30:10.952Z,67.30
2022-09-27T17:32:52.970Z,67.30
2022-09-27T17:35:33.004Z,67.13
2022-09-27T17:38:07.935Z,67.22
2022-09-27T17:40:45.972Z,67.24
2022-09-27T17:43:50.520Z,67.52
2022-09-27T17:46:46.077Z,67.53
2022-09-27T17:50:00.419Z,67.48
2022-09-27T17:52:54.887Z,67.51
2022-09-27T17:55:43.029Z,67.67
2022-09-27T17:58:34.208Z,67.70
2022-09-27T18:01:31.393Z,67.84
2022-09-27T18:04:20.167Z,67.63
2022-09-27T18:07:03.306Z,67.90
2022-09-27T18:09:51.917Z,67.95
2022-09-27T18:12:44.183Z,67.96
2022-09-27T18:15:53.447Z,67.65
2022-09-27T18:18:45.554Z,67.64
2022-09-27T18:21:27.952Z,67.67
2022-09-27T18:24:15.481Z,67.87
2022-09-27T18:27:16.569Z,67.75
2022-09-27T18:30:03.849Z,67.88
2022-09-27T18:35:37.852Z,67.82
2022-09-27T18:39:01.844Z,67.90
2022-09-27T18:41:48.217Z,67.77
2022-09-27T18:45:25.276Z,67.85
2022-09-27T18:48:43.347Z,67.92
2022-09-27T18:51:38.165Z,67.98
2022-09-27T18:54:23.290Z,68.11
2022-09-27T18:57:13.129Z,68.12
2022-09-27T18:59:53.063Z,68.04
2022-09-27T19:02:41.534Z,67.95
2022-09-27T19:05:35.296Z,67.95
2022-09-27T19:08:09.343Z,68.04
2022-09-27T19:11:47.839Z,68.05
2022-09-27T19:14:25.188Z,68.12
2022-09-27T19:17:23.156Z,68.20
2022-09-27T19:20:11.966Z,68.33
2022-09-27T19:23:48.172Z,68.11
2022-09-27T19:27:04.466Z,68.02
2022-09-27T19:29:41.073Z,68.12
2022-09-27T19:32:44.017Z,67.99
2022-09-27T19:35:51.265Z,68.02
2022-09-27T19:38:36.891Z,68.11
2022-09-27T19:41:22.086Z,67.98
2022-09-27T19:44:16.276Z,68.17
2022-09-27T19:46:49.879Z,68.01
2022-09-27T19:49:44.168Z,68.11
2022-09-27T19:52:28.221Z,68.15
2022-09-27T19:55:18.935Z,68.16
2022-09-27T19:58:07.062Z,68.25
2022-09-27T20:00:56.343Z,68.33
2022-09-27T20:04:00.625Z,68.42
2022-09-27T20:06:50.034Z,68.24
2022-09-27T20:09:39.989Z,68.15
2022-09-27T20:12:14.917Z,68.37
2022-09-27T20:15:01.700Z,68.36
2022-09-27T20:17:37.925Z,68.45
2022-09-27T20:20:28.761Z,68.53
2022-09-27T20:23:08.994Z,68.37
2022-09-27T20:25:45.741Z,68.60
2022-09-27T20:28:29.814Z,68.68
2022-09-27T20:31:07.682Z,68.44
2022-09-27T20:33:44.571Z,68.54
2022-09-27T20:36:22.105Z,68.64
2022-09-27T20:39:10.095Z,68.82
2022-09-27T20:41:51.709Z,68.75
2022-09-27T20:44:35.197Z,68.79
2022-09-27T20:47:28.752Z,68.84
2022-09-27T20:50:06.845Z,68.75
2022-09-27T20:52:42.975Z,68.78
2022-09-27T20:55:26.916Z,68.96
2022-09-27T20:58:16.742Z,68.82
2022-09-27T21:01:12.947Z,69.10
2022-09-27T21:03:55.807Z,69.16
2022-09-27T21:06:32.852Z,68.95
2022-09-27T21:09:19.138Z,68.85
2022-09-27T21:11:57.897Z,68.90
2022-09-27T21:14:41.592Z,68.83
2022-09-27T21:17:36.808Z,68.94
2022-09-27T21:20:11.972Z,69.08
2022-09-27T21:23:04.771Z,69.07
2022-09-27T21:25:41.905Z,69.16
2022-09-27T21:28:33.832Z,69.12
2022-09-27T21:31:23.903Z,69.24
2022-09-27T21:34:08.774Z,69.20
2022-09-27T21:36:52.545Z,68.99
2022-09-27T21:39:38.705Z,69.09
2022-09-27T21:42:21.888Z,69.15
2022-09-27T21:44:58.779Z,69.29
2022-09-27T21:47:51.829Z,69.33
2022-09-27T21:50:43.006Z,69.28
2022-09-27T21:53:32.611Z,69.32
2022-09-27T21:56:12.721Z,69.11
2022-09-27T21:58:56.839Z,69.31
2022-09-27T22:01:40.711Z,69.25
2022-09-27T22:04:20.856Z,69.38
2022-09-27T22:07:10.809Z,69.35
2022-09-27T22:09:50.677Z,69.27
2022-09-27T22:12:32.677Z,69.34
2022-09-27T22:15:12.751Z,69.39
2022-09-27T22:17:57.586Z,69.34
2022-09-27T22:20:47.126Z,69.44
2022-09-27T22:23:38.681Z,69.48
2022-09-27T22:26:26.699Z,69.40
2022-09-27T22:29:16.698Z,69.28
2022-09-27T22:32:01.695Z,69.51
2022-09-27T22:34:40.627Z,69.39
2022-09-27T22:37:26.780Z,69.28
2022-09-27T22:40:08.727Z,69.48
2022-09-27T22:42:54.689Z,69.43
2022-09-27T22:45:41.731Z,69.17
2022-09-27T22:48:20.615Z,69.56
2022-09-27T22:51:08.374Z,69.43
2022-09-27T22:53:47.695Z,69.47
2022-09-27T22:56:36.827Z,69.34
2022-09-27T22:59:19.878Z,69.40
2022-09-27T23:02:12.490Z,69.45
2022-09-27T23:05:05.758Z,69.57
2022-09-27T23:08:02.905Z,69.69
2022-09-27T23:10:46.736Z,69.69
2022-09-27T23:13:35.710Z,69.57
2022-09-27T23:16:17.523Z,69.47
2022-09-27T23:19:03.557Z,69.45
2022-09-27T23:21:45.607Z,69.71
2022-09-27T23:24:31.492Z,69.70
2022-09-27T23:27:38.637Z,69.66
2022-09-27T23:30:21.532Z,69.74
2022-09-27T23:33:12.901Z,69.71
2022-09-27T23:35:57.700Z,69.62
2022-09-27T23:38:54.744Z,69.57
2022-09-27T23:41:49.605Z,69.65
2022-09-27T23:44:36.537Z,69.75
2022-09-27T23:47:30.651Z,69.59
2022-09-27T23:50:27.846Z,69.60
2022-09-27T23:53:22.595Z,69.62
2022-09-27T23:56:10.752Z,69.64
2022-09-27T23:58:53.651Z,69.67
